Pagina principale
METAR-TAF:

METAR-TAF

Aeroporti :

Pian Rosa, Italia

latitudine: 45-56N, longitudine: 007-42E, altezza: 3480 m

Osservazione

Il bollettino è stato emesso 1 ora e 15 minuti fa, alle 10:55 UTC
Vento 12 kt da nord-est
Temperature -9°C
Umidità 100%
Pressione 1025 hPa
Visibilità 10 km o più
Poco nuvoloso ad un'altezza di 2000 ft

METAR: LIMH 261055Z 05012KT 9999 FEW020 M09/M09 Q1025 RMK FEW MON CLD SCT VAL NIL VIS MIN 9999

Ora: 14:10 (12:10 UTC)


TAF: mancante

Osservazioni e previsioni meteorologiche di più di 4000 aeroporti (messaggi METAR e TAF).

Le stazioni disponibili sono rappresentate dai dischi gialli e rossi sulla carta.

Puntare il mouse per vedere il nome della stazione.

Clicca sopra per visualizzare le osservazioni e previsioni meteorologiche.

Per cambiare la mappa : fare clic sui pulsanti verdi con una croce nera per ingrandire, il pulsante verde con un trattino per diminuire, o sulla freccia verde per le mappe adiacenti.


METAR-TAF: